createdAt,value
2023-01-27T00:02:45.139Z,99593.16
2023-01-27T00:06:49.645Z,99593.56
2023-01-27T00:11:20.094Z,99600.97
2023-01-27T00:15:26.034Z,99594.22
2023-01-27T00:19:29.964Z,99595.44
2023-01-27T00:23:51.225Z,99599.66
2023-01-27T00:27:56.173Z,99592.84
2023-01-27T00:32:18.733Z,99599.03
2023-01-27T00:36:25.119Z,99588.88
2023-01-27T00:40:28.891Z,99582.19
2023-01-27T00:44:37.945Z,99584.78
2023-01-27T00:48:43.231Z,99533.34
2023-01-27T00:52:47.515Z,99572.50
2023-01-27T00:56:52.022Z,99575.28
2023-01-27T01:00:55.475Z,99578.59
2023-01-27T01:05:00.335Z,99570.41
2023-01-27T01:09:04.109Z,99579.63
2023-01-27T01:13:08.262Z,99580.88
2023-01-27T01:17:11.562Z,99583.97
2023-01-27T01:21:17.158Z,99582.34
2023-01-27T01:25:20.628Z,99566.69
2023-01-27T01:29:24.071Z,99587.41
2023-01-27T01:33:27.448Z,99583.63
2023-01-27T01:37:41.331Z,99584.47
2023-01-27T01:41:44.782Z,99584.66
2023-01-27T01:45:54.025Z,99569.00
2023-01-27T01:49:57.375Z,99584.28
2023-01-27T01:54:04.269Z,99557.91
2023-01-27T01:58:08.624Z,99581.53
2023-01-27T02:02:15.410Z,99577.47
2023-01-27T02:06:19.127Z,99572.41
2023-01-27T02:10:23.900Z,99563.63
2023-01-27T02:14:27.476Z,99573.38
2023-01-27T02:18:31.362Z,99578.34
2023-01-27T02:22:39.822Z,99541.31
2023-01-27T02:26:45.851Z,99560.16
2023-01-27T02:30:49.274Z,99570.06
2023-01-27T02:34:52.813Z,99561.94
2023-01-27T02:38:58.148Z,99557.63
2023-01-27T02:43:05.193Z,99556.38
2023-01-27T02:47:08.605Z,99569.03
2023-01-27T02:51:12.521Z,99566.38
2023-01-27T02:55:15.873Z,99562.72
2023-01-27T02:59:21.081Z,99564.81
2023-01-27T03:03:24.416Z,99566.06
2023-01-27T03:07:28.307Z,99560.22
2023-01-27T03:11:49.078Z,99557.41
2023-01-27T03:16:13.428Z,99541.91
2023-01-27T03:20:18.173Z,99563.25
2023-01-27T03:24:22.036Z,99553.72
2023-01-27T03:28:25.557Z,99558.69
2023-01-27T03:32:33.593Z,99552.59
2023-01-27T03:36:54.140Z,99552.00
2023-01-27T03:41:15.100Z,99560.16
2023-01-27T03:45:36.007Z,99560.66
2023-01-27T03:49:40.639Z,99562.47
2023-01-27T03:53:43.666Z,99563.50
2023-01-27T03:57:47.288Z,99555.88
2023-01-27T04:01:50.637Z,99562.88
2023-01-27T04:06:12.570Z,99561.78
2023-01-27T04:10:15.677Z,99555.66
2023-01-27T04:14:18.948Z,99566.16
2023-01-27T04:18:22.156Z,99547.41
2023-01-27T04:22:26.814Z,99561.50
2023-01-27T04:26:33.469Z,99556.81
2023-01-27T04:30:36.954Z,99557.97
2023-01-27T04:34:41.183Z,99563.06
2023-01-27T04:38:46.238Z,99553.00
2023-01-27T04:42:49.340Z,99566.59
2023-01-27T04:46:54.240Z,99563.75
2023-01-27T04:50:57.352Z,99558.78
2023-01-27T04:55:02.152Z,99561.00
2023-01-27T04:59:07.524Z,99569.97
2023-01-27T05:03:11.555Z,99574.16
2023-01-27T05:07:14.807Z,99562.53
2023-01-27T05:11:20.233Z,99585.19
2023-01-27T05:15:24.611Z,99587.94
2023-01-27T05:19:28.102Z,99597.66
2023-01-27T05:23:37.329Z,99589.47
2023-01-27T05:27:42.119Z,99591.97
2023-01-27T05:31:45.512Z,99598.88
2023-01-27T05:35:48.787Z,99603.84
2023-01-27T05:39:52.160Z,99595.25
2023-01-27T05:43:57.851Z,99600.03
2023-01-27T05:48:01.077Z,99602.41
2023-01-27T05:52:04.407Z,99606.41
2023-01-27T05:56:10.718Z,99609.69
2023-01-27T06:00:16.947Z,99623.88
2023-01-27T06:04:23.116Z,99603.78
2023-01-27T06:08:27.487Z,99637.81
2023-01-27T06:12:30.784Z,99620.63
2023-01-27T06:16:35.671Z,99624.66
2023-01-27T06:20:40.030Z,99637.53
2023-01-27T06:24:43.242Z,99636.84
2023-01-27T06:28:46.636Z,99634.28
2023-01-27T06:32:51.342Z,99641.41
2023-01-27T06:36:54.516Z,99647.00
2023-01-27T06:40:57.583Z,99648.09
2023-01-27T06:45:01.571Z,99651.88
2023-01-27T06:49:05.870Z,99657.72
2023-01-27T06:53:09.238Z,99657.22
2023-01-27T06:57:16.664Z,99636.31
2023-01-27T07:01:19.604Z,99646.72
2023-01-27T07:05:26.390Z,99670.19
2023-01-27T07:09:32.144Z,99659.19
2023-01-27T07:13:36.894Z,99664.00
2023-01-27T07:17:44.047Z,99628.66
2023-01-27T07:21:48.881Z,99644.50
2023-01-27T07:25:51.928Z,99686.84
2023-01-27T07:29:58.418Z,99682.19
2023-01-27T07:34:05.176Z,99687.88
2023-01-27T07:38:13.679Z,99689.94
2023-01-27T07:42:17.572Z,99703.78
2023-01-27T07:46:22.647Z,99698.59
2023-01-27T07:50:31.470Z,99708.03
2023-01-27T07:54:38.018Z,99698.38
2023-01-27T07:58:44.788Z,99679.28
2023-01-27T08:02:54.634Z,99701.34
2023-01-27T08:06:58.048Z,99715.19
2023-01-27T08:11:04.471Z,99713.88
2023-01-27T08:15:10.168Z,99698.31
2023-01-27T08:19:13.683Z,99708.38
2023-01-27T08:23:18.996Z,99687.34
2023-01-27T08:27:23.595Z,99707.28
2023-01-27T08:31:26.606Z,99715.56
2023-01-27T08:35:29.512Z,99713.47
2023-01-27T08:39:32.546Z,99687.50
2023-01-27T08:43:37.197Z,99724.47
2023-01-27T08:47:39.993Z,99724.47
2023-01-27T08:51:43.398Z,99723.53
2023-01-27T08:55:46.531Z,99711.84
2023-01-27T08:59:50.746Z,99742.78
2023-01-27T09:03:53.644Z,99736.31
2023-01-27T09:07:56.428Z,99742.81
2023-01-27T09:11:59.641Z,99747.31
2023-01-27T09:16:04.487Z,99757.06
2023-01-27T09:20:08.445Z,99751.56
2023-01-27T09:24:11.370Z,99744.44
2023-01-27T09:28:17.867Z,99760.03
2023-01-27T09:32:22.099Z,99763.91
2023-01-27T09:36:25.038Z,99766.59
2023-01-27T09:40:31.884Z,99701.53
2023-01-27T09:44:49.948Z,99771.00
2023-01-27T09:49:04.918Z,99780.09
2023-01-27T09:53:23.466Z,99779.03
2023-01-27T09:57:35.593Z,99775.22
2023-01-27T10:01:48.201Z,99789.25
2023-01-27T10:06:09.474Z,99789.19
2023-01-27T10:10:25.701Z,99777.84
2023-01-27T10:14:36.878Z,99784.69
2023-01-27T10:18:52.083Z,99736.19
2023-01-27T10:23:08.215Z,99791.97
2023-01-27T10:27:16.776Z,99792.44
2023-01-27T10:31:27.312Z,99784.13
2023-01-27T10:35:34.493Z,99776.53
2023-01-27T10:39:46.992Z,99781.84
2023-01-27T10:43:58.834Z,99738.56
2023-01-27T10:48:12.320Z,99769.59
2023-01-27T10:52:18.719Z,99773.09
2023-01-27T10:56:34.037Z,99781.63
2023-01-27T11:05:18.903Z,99769.28
2023-01-27T11:09:37.388Z,99761.63
2023-01-27T11:13:46.653Z,99759.88
2023-01-27T11:18:22.632Z,99761.94
2023-01-27T11:22:34.333Z,99716.56
2023-01-27T11:26:44.869Z,99699.34
2023-01-27T11:30:50.754Z,99765.41
2023-01-27T11:35:04.151Z,99754.47
2023-01-27T11:39:14.756Z,99748.66
2023-01-27T11:43:19.908Z,99747.34
2023-01-27T11:47:27.573Z,99749.03
2023-01-27T11:51:39.664Z,99734.84
2023-01-27T11:55:46.270Z,99744.00
2023-01-27T11:59:51.092Z,99727.03
2023-01-27T12:04:12.659Z,99747.94
2023-01-27T12:08:46.074Z,99742.94
2023-01-27T12:12:49.937Z,99746.00
2023-01-27T12:16:54.048Z,99745.69
2023-01-27T12:21:02.420Z,99742.47
2023-01-27T12:25:24.660Z,99747.81
2023-01-27T12:29:30.691Z,99743.97
2023-01-27T12:33:46.194Z,99737.13
2023-01-27T12:37:52.076Z,99721.03
2023-01-27T12:41:58.752Z,99729.81
2023-01-27T12:46:21.757Z,99731.75
2023-01-27T12:50:37.583Z,99719.50
2023-01-27T12:54:44.035Z,99727.75
2023-01-27T12:58:52.267Z,99729.09
2023-01-27T13:03:25.748Z,99716.13
2023-01-27T13:07:34.806Z,99728.75
2023-01-27T13:11:45.982Z,99706.94
2023-01-27T13:16:04.309Z,99732.59
2023-01-27T13:20:20.518Z,99728.28
2023-01-27T13:24:36.790Z,99721.84
2023-01-27T13:28:52.665Z,99727.75
2023-01-27T13:33:02.437Z,99726.78
2023-01-27T13:37:10.121Z,99723.31
2023-01-27T13:41:22.523Z,99736.63
2023-01-27T13:45:36.947Z,99733.03
2023-01-27T13:49:44.884Z,99724.22
2023-01-27T13:53:49.845Z,99741.75
2023-01-27T13:58:01.270Z,99743.38
2023-01-27T14:02:26.826Z,99707.81
2023-01-27T14:06:49.485Z,99739.13
2023-01-27T14:11:04.867Z,99725.72
2023-01-27T14:15:24.472Z,99753.72
2023-01-27T14:19:37.553Z,99764.91
2023-01-27T14:23:52.663Z,99755.94
2023-01-27T14:28:02.929Z,99768.97
2023-01-27T14:32:27.381Z,99772.50
2023-01-27T14:36:36.635Z,99769.81
2023-01-27T14:40:48.495Z,99786.88
2023-01-27T14:45:03.409Z,99787.09
2023-01-27T14:49:12.547Z,99772.75
2023-01-27T14:53:37.550Z,99787.34
2023-01-27T14:57:47.802Z,99792.56
2023-01-27T15:01:59.040Z,99787.72
2023-01-27T15:06:05.071Z,99793.09
2023-01-27T15:10:22.026Z,99783.66
2023-01-27T15:14:54.601Z,99795.81
2023-01-27T15:19:18.720Z,99798.16
2023-01-27T15:24:02.730Z,99805.53
2023-01-27T15:28:12.714Z,99815.44
2023-01-27T15:32:33.004Z,99817.69
2023-01-27T15:36:39.113Z,99816.06
2023-01-27T15:41:02.174Z,99832.91
2023-01-27T15:45:13.716Z,99821.69
2023-01-27T15:49:29.712Z,99835.44
2023-01-27T15:53:34.847Z,99836.25
2023-01-27T15:57:42.353Z,99838.31
2023-01-27T16:01:49.700Z,99843.44
2023-01-27T16:05:57.507Z,99818.88
2023-01-27T16:10:02.385Z,99847.59
2023-01-27T16:14:39.890Z,99849.03
2023-01-27T16:18:46.305Z,99852.44
2023-01-27T16:22:53.563Z,99858.91
2023-01-27T16:27:05.886Z,99857.66
2023-01-27T16:31:16.224Z,99831.41
2023-01-27T16:35:22.002Z,99864.19
2023-01-27T16:39:30.904Z,99871.56
2023-01-27T16:43:41.714Z,99864.91
2023-01-27T16:47:48.783Z,99865.34
2023-01-27T16:51:57.510Z,99873.47
2023-01-27T16:56:03.036Z,99877.41
2023-01-27T17:00:13.028Z,99892.47
2023-01-27T17:04:20.728Z,99892.66
2023-01-27T17:08:35.587Z,99891.31
2023-01-27T17:12:43.666Z,99898.91
2023-01-27T17:16:48.532Z,99857.63
2023-01-27T17:20:52.436Z,99895.16
2023-01-27T17:25:04.822Z,99907.00
2023-01-27T17:29:08.601Z,99906.84
2023-01-27T17:33:18.183Z,99906.94
2023-01-27T17:37:25.939Z,99918.53
2023-01-27T17:41:35.915Z,99925.00
2023-01-27T17:45:40.578Z,99926.63
2023-01-27T17:49:49.619Z,99929.44
2023-01-27T17:54:05.411Z,99934.34
2023-01-27T17:58:13.776Z,99940.22
2023-01-27T18:02:26.981Z,99938.69
2023-01-27T18:06:30.864Z,99943.16
2023-01-27T18:10:39.500Z,99945.28
2023-01-27T18:14:44.482Z,99945.47
2023-01-27T18:18:49.824Z,99952.53
2023-01-27T18:22:53.365Z,99952.91
2023-01-27T18:26:56.973Z,99959.44
2023-01-27T18:31:03.177Z,99965.09
2023-01-27T18:35:24.258Z,99944.94
2023-01-27T18:39:37.201Z,99955.13
2023-01-27T18:43:41.503Z,99958.38
2023-01-27T18:47:46.712Z,99955.09
2023-01-27T18:51:50.772Z,99954.28
2023-01-27T18:55:54.828Z,99961.63
2023-01-27T18:59:59.533Z,99959.22
2023-01-27T19:04:04.662Z,99945.75
2023-01-27T19:08:09.107Z,99950.44
2023-01-27T19:12:12.919Z,99959.22
2023-01-27T19:16:18.782Z,99938.97
2023-01-27T19:20:25.560Z,99955.47
2023-01-27T19:24:29.184Z,99964.38
2023-01-27T19:28:34.369Z,99958.81
2023-01-27T19:32:38.405Z,99965.13
2023-01-27T19:36:48.178Z,99969.81
2023-01-27T19:40:51.949Z,99964.59
2023-01-27T19:44:55.446Z,99962.28
2023-01-27T19:48:58.941Z,99970.91
2023-01-27T19:53:03.719Z,99970.28
2023-01-27T19:57:07.503Z,99983.31
2023-01-27T20:01:11.106Z,99980.53
2023-01-27T20:05:15.327Z,99991.09
2023-01-27T20:09:20.503Z,99981.31
2023-01-27T20:13:24.377Z,99981.81
2023-01-27T20:17:28.387Z,99976.94
2023-01-27T20:21:39.224Z,99987.38
2023-01-27T20:25:44.562Z,99982.34
2023-01-27T20:29:47.970Z,99993.41
2023-01-27T20:33:51.748Z,99994.56
2023-01-27T20:37:55.750Z,99996.06
2023-01-27T20:42:00.852Z,99996.06
2023-01-27T20:46:06.411Z,99998.28
2023-01-27T20:50:11.875Z,99989.78
2023-01-27T20:54:15.306Z,99993.06
2023-01-27T20:58:20.175Z,99993.97
2023-01-27T21:02:23.661Z,99994.47
2023-01-27T21:06:27.723Z,99997.03
2023-01-27T21:10:31.340Z,99990.66
2023-01-27T21:14:36.294Z,100003.09
2023-01-27T21:18:40.298Z,99999.09
2023-01-27T21:22:46.387Z,100009.06
2023-01-27T21:26:52.230Z,100014.94
2023-01-27T21:30:57.586Z,100017.69
2023-01-27T21:35:01.851Z,100014.09
2023-01-27T21:39:05.716Z,100004.66
2023-01-27T21:43:28.407Z,99992.84
2023-01-27T21:47:33.823Z,100017.34
2023-01-27T21:51:40.724Z,99998.09
2023-01-27T21:55:44.344Z,99996.47
2023-01-27T21:59:47.961Z,99995.53
2023-01-27T22:03:53.294Z,99992.00
2023-01-27T22:07:57.054Z,100004.66
2023-01-27T22:12:00.674Z,100003.16
2023-01-27T22:16:07.809Z,100009.88
2023-01-27T22:20:15.527Z,99996.41
2023-01-27T22:24:19.013Z,100013.34
2023-01-27T22:28:24.284Z,100013.31
2023-01-27T22:32:27.958Z,100009.22
2023-01-27T22:36:32.960Z,100006.03
2023-01-27T22:40:36.702Z,100008.59
2023-01-27T22:44:40.344Z,99989.69
2023-01-27T22:48:44.408Z,99987.28
2023-01-27T22:52:55.071Z,99995.38
2023-01-27T22:57:01.075Z,99995.63
2023-01-27T23:01:07.753Z,99969.28
2023-01-27T23:05:11.899Z,99998.97
2023-01-27T23:09:17.759Z,99982.41
2023-01-27T23:13:24.180Z,99980.78
2023-01-27T23:17:58.861Z,99989.53
2023-01-27T23:22:01.109Z,99994.84
2023-01-27T23:26:12.336Z,100001.38
2023-01-27T23:30:17.069Z,99998.03
2023-01-27T23:34:21.461Z,99991.72
2023-01-27T23:38:36.059Z,100004.41
2023-01-27T23:42:42.421Z,99992.28
2023-01-27T23:46:48.823Z,100008.56
2023-01-27T23:50:52.970Z,99997.38
2023-01-27T23:54:57.587Z,100004.13
2023-01-27T23:59:03.123Z,100011.81
